sensor_id;sensor_type;location;lat;lon;timestamp;P1;durP1;ratioP1;P2;durP2;ratioP2
63110;SDS011;49201;53.426;10.300;2022-09-01T00:01:14;1.40;;;0.83;;
63110;SDS011;49201;53.426;10.300;2022-09-01T00:03:51;2.30;;;0.83;;
63110;SDS011;49201;53.426;10.300;2022-09-01T00:06:20;2.70;;;1.00;;
63110;SDS011;49201;53.426;10.300;2022-09-01T00:08:51;2.77;;;0.90;;
63110;SDS011;49201;53.426;10.300;2022-09-01T00:11:18;1.10;;;0.90;;
63110;SDS011;49201;53.426;10.300;2022-09-01T00:13:45;1.73;;;0.90;;
63110;SDS011;49201;53.426;10.300;2022-09-01T00:16:11;1.30;;;1.10;;
63110;SDS011;49201;53.426;10.300;2022-09-01T00:18:39;1.37;;;1.13;;
63110;SDS011;49201;53.426;10.300;2022-09-01T00:21:07;2.00;;;0.97;;
63110;SDS011;49201;53.426;10.300;2022-09-01T00:23:33;2.20;;;1.10;;
63110;SDS011;49201;53.426;10.300;2022-09-01T00:25:58;1.83;;;0.87;;
63110;SDS011;49201;53.426;10.300;2022-09-01T00:28:24;1.77;;;0.90;;
63110;SDS011;49201;53.426;10.300;2022-09-01T00:30:49;0.80;;;0.80;;
63110;SDS011;49201;53.426;10.300;2022-09-01T00:33:15;1.63;;;0.97;;
63110;SDS011;49201;53.426;10.300;2022-09-01T00:35:40;1.80;;;0.90;;
63110;SDS011;49201;53.426;10.300;2022-09-01T00:38:06;0.90;;;0.80;;
63110;SDS011;49201;53.426;10.300;2022-09-01T00:40:31;2.80;;;1.13;;
63110;SDS011;49201;53.426;10.300;2022-09-01T00:42:57;1.27;;;0.90;;
63110;SDS011;49201;53.426;10.300;2022-09-01T00:45:24;2.20;;;0.97;;
63110;SDS011;49201;53.426;10.300;2022-09-01T00:47:50;1.67;;;1.00;;
63110;SDS011;49201;53.426;10.300;2022-09-01T00:50:17;1.37;;;1.00;;
63110;SDS011;49201;53.426;10.300;2022-09-01T00:52:49;3.33;;;1.20;;
63110;SDS011;49201;53.426;10.300;2022-09-01T00:55:18;2.40;;;1.10;;
63110;SDS011;49201;53.426;10.300;2022-09-01T00:57:48;1.20;;;1.10;;
63110;SDS011;49201;53.426;10.300;2022-09-01T01:00:16;1.80;;;0.90;;
63110;SDS011;49201;53.426;10.300;2022-09-01T01:02:46;1.77;;;0.90;;
63110;SDS011;49201;53.426;10.300;2022-09-01T01:05:13;1.60;;;1.10;;
63110;SDS011;49201;53.426;10.300;2022-09-01T01:07:40;1.30;;;1.00;;
63110;SDS011;49201;53.426;10.300;2022-09-01T01:10:10;1.47;;;1.33;;
63110;SDS011;49201;53.426;10.300;2022-09-01T01:12:37;1.20;;;1.10;;
63110;SDS011;49201;53.426;10.300;2022-09-01T01:15:05;1.70;;;1.00;;
63110;SDS011;49201;53.426;10.300;2022-09-01T01:17:32;1.97;;;1.00;;
63110;SDS011;49201;53.426;10.300;2022-09-01T01:19:58;2.13;;;1.00;;
63110;SDS011;49201;53.426;10.300;2022-09-01T01:22:59;1.80;;;0.90;;
63110;SDS011;49201;53.426;10.300;2022-09-01T01:25:45;1.63;;;0.90;;
63110;SDS011;49201;53.426;10.300;2022-09-01T01:30:46;1.50;;;0.90;;
63110;SDS011;49201;53.426;10.300;2022-09-01T01:33:17;1.47;;;1.20;;
63110;SDS011;49201;53.426;10.300;2022-09-01T01:35:43;1.93;;;1.03;;
63110;SDS011;49201;53.426;10.300;2022-09-01T01:38:09;1.37;;;1.17;;
63110;SDS011;49201;53.426;10.300;2022-09-01T01:40:36;2.23;;;1.10;;
63110;SDS011;49201;53.426;10.300;2022-09-01T01:43:02;1.67;;;1.27;;
63110;SDS011;49201;53.426;10.300;2022-09-01T01:45:29;2.10;;;0.93;;
63110;SDS011;49201;53.426;10.300;2022-09-01T01:47:56;1.30;;;1.10;;
63110;SDS011;49201;53.426;10.300;2022-09-01T01:50:24;2.40;;;1.00;;
63110;SDS011;49201;53.426;10.300;2022-09-01T01:52:54;1.10;;;1.00;;
63110;SDS011;49201;53.426;10.300;2022-09-01T01:55:21;1.17;;;1.03;;
63110;SDS011;49201;53.426;10.300;2022-09-01T01:57:52;2.33;;;1.23;;
63110;SDS011;49201;53.426;10.300;2022-09-01T02:00:19;2.83;;;1.10;;
63110;SDS011;49201;53.426;10.300;2022-09-01T02:02:47;2.77;;;1.33;;
63110;SDS011;49201;53.426;10.300;2022-09-01T02:05:24;1.67;;;1.23;;
63110;SDS011;49201;53.426;10.300;2022-09-01T02:07:53;1.53;;;1.20;;
63110;SDS011;49201;53.426;10.300;2022-09-01T02:10:25;2.03;;;1.27;;
63110;SDS011;49201;53.426;10.300;2022-09-01T02:12:55;1.10;;;0.90;;
63110;SDS011;49201;53.426;10.300;2022-09-01T02:15:26;2.00;;;1.00;;
63110;SDS011;49201;53.426;10.300;2022-09-01T02:17:51;3.60;;;1.00;;
63110;SDS011;49201;53.426;10.300;2022-09-01T02:20:25;4.47;;;1.30;;
63110;SDS011;49201;53.426;10.300;2022-09-01T02:22:57;1.73;;;1.30;;
63110;SDS011;49201;53.426;10.300;2022-09-01T02:25:28;1.87;;;0.90;;
63110;SDS011;49201;53.426;10.300;2022-09-01T02:27:56;1.93;;;1.00;;
63110;SDS011;49201;53.426;10.300;2022-09-01T02:30:21;1.00;;;0.90;;
63110;SDS011;49201;53.426;10.300;2022-09-01T02:32:49;1.20;;;1.10;;
63110;SDS011;49201;53.426;10.300;2022-09-01T02:35:14;0.97;;;0.90;;
63110;SDS011;49201;53.426;10.300;2022-09-01T02:37:41;1.83;;;0.90;;
63110;SDS011;49201;53.426;10.300;2022-09-01T02:40:08;2.03;;;1.17;;
63110;SDS011;49201;53.426;10.300;2022-09-01T02:42:37;2.10;;;1.30;;
63110;SDS011;49201;53.426;10.300;2022-09-01T02:45:08;4.63;;;1.10;;
63110;SDS011;49201;53.426;10.300;2022-09-01T02:47:40;2.00;;;0.93;;
63110;SDS011;49201;53.426;10.300;2022-09-01T02:50:09;1.60;;;1.00;;
63110;SDS011;49201;53.426;10.300;2022-09-01T02:52:38;1.37;;;1.00;;
63110;SDS011;49201;53.426;10.300;2022-09-01T02:55:05;1.10;;;0.80;;
63110;SDS011;49201;53.426;10.300;2022-09-01T02:57:32;1.50;;;1.07;;
63110;SDS011;49201;53.426;10.300;2022-09-01T02:59:59;2.83;;;1.30;;
63110;SDS011;49201;53.426;10.300;2022-09-01T03:02:28;1.20;;;1.10;;
63110;SDS011;49201;53.426;10.300;2022-09-01T03:04:54;1.53;;;1.20;;
63110;SDS011;49201;53.426;10.300;2022-09-01T03:07:21;2.90;;;1.30;;
63110;SDS011;49201;53.426;10.300;2022-09-01T03:09:48;1.07;;;1.00;;
63110;SDS011;49201;53.426;10.300;2022-09-01T03:12:14;2.83;;;1.23;;
63110;SDS011;49201;53.426;10.300;2022-09-01T03:14:39;2.47;;;1.40;;
63110;SDS011;49201;53.426;10.300;2022-09-01T03:17:05;1.63;;;1.30;;
63110;SDS011;49201;53.426;10.300;2022-09-01T03:19:31;1.30;;;0.90;;
63110;SDS011;49201;53.426;10.300;2022-09-01T03:22:08;3.17;;;1.70;;
63110;SDS011;49201;53.426;10.300;2022-09-01T03:24:35;2.60;;;1.30;;
63110;SDS011;49201;53.426;10.300;2022-09-01T03:27:00;2.20;;;1.20;;
63110;SDS011;49201;53.426;10.300;2022-09-01T03:29:26;3.03;;;1.40;;
63110;SDS011;49201;53.426;10.300;2022-09-01T03:31:52;3.80;;;1.43;;
63110;SDS011;49201;53.426;10.300;2022-09-01T03:34:18;3.90;;;1.43;;
63110;SDS011;49201;53.426;10.300;2022-09-01T03:36:49;2.50;;;1.37;;
63110;SDS011;49201;53.426;10.300;2022-09-01T03:39:19;1.33;;;1.20;;
63110;SDS011;49201;53.426;10.300;2022-09-01T03:41:44;2.40;;;1.30;;
63110;SDS011;49201;53.426;10.300;2022-09-01T03:44:11;1.77;;;1.17;;
63110;SDS011;49201;53.426;10.300;2022-09-01T03:46:40;2.23;;;1.37;;
63110;SDS011;49201;53.426;10.300;2022-09-01T03:49:07;1.40;;;1.30;;
63110;SDS011;49201;53.426;10.300;2022-09-01T03:51:37;2.83;;;1.20;;
63110;SDS011;49201;53.426;10.300;2022-09-01T03:54:05;2.10;;;1.13;;
63110;SDS011;49201;53.426;10.300;2022-09-01T03:56:30;1.30;;;1.20;;
63110;SDS011;49201;53.426;10.300;2022-09-01T03:58:58;1.47;;;1.33;;
63110;SDS011;49201;53.426;10.300;2022-09-01T04:01:25;2.07;;;1.40;;
63110;SDS011;49201;53.426;10.300;2022-09-01T04:03:52;1.67;;;1.33;;
63110;SDS011;49201;53.426;10.300;2022-09-01T04:06:22;1.23;;;1.00;;
63110;SDS011;49201;53.426;10.300;2022-09-01T04:08:48;1.20;;;1.10;;
63110;SDS011;49201;53.426;10.300;2022-09-01T04:11:16;1.70;;;1.47;;
63110;SDS011;49201;53.426;10.300;2022-09-01T04:13:44;2.13;;;1.20;;
63110;SDS011;49201;53.426;10.300;2022-09-01T04:16:24;2.80;;;1.40;;
63110;SDS011;49201;53.426;10.300;2022-09-01T04:19:11;2.00;;;1.50;;
63110;SDS011;49201;53.426;10.300;2022-09-01T04:21:49;2.30;;;1.53;;
63110;SDS011;49201;53.426;10.300;2022-09-01T04:24:17;1.30;;;1.13;;
63110;SDS011;49201;53.426;10.300;2022-09-01T04:26:45;1.93;;;1.23;;
63110;SDS011;49201;53.426;10.300;2022-09-01T04:29:14;2.33;;;1.50;;
63110;SDS011;49201;53.426;10.300;2022-09-01T04:31:43;2.93;;;1.37;;
63110;SDS011;49201;53.426;10.300;2022-09-01T04:34:09;1.70;;;1.40;;
63110;SDS011;49201;53.426;10.300;2022-09-01T04:36:40;1.87;;;1.27;;
63110;SDS011;49201;53.426;10.300;2022-09-01T04:39:08;1.93;;;1.30;;
63110;SDS011;49201;53.426;10.300;2022-09-01T04:41:42;4.43;;;1.33;;
63110;SDS011;49201;53.426;10.300;2022-09-01T04:44:13;2.17;;;1.20;;
63110;SDS011;49201;53.426;10.300;2022-09-01T04:46:43;4.17;;;1.53;;
63110;SDS011;49201;53.426;10.300;2022-09-01T04:49:12;2.07;;;1.47;;
63110;SDS011;49201;53.426;10.300;2022-09-01T04:51:44;5.37;;;2.70;;
63110;SDS011;49201;53.426;10.300;2022-09-01T04:54:12;4.20;;;1.90;;
63110;SDS011;49201;53.426;10.300;2022-09-01T04:56:41;3.10;;;1.97;;
63110;SDS011;49201;53.426;10.300;2022-09-01T04:59:12;2.90;;;1.50;;
63110;SDS011;49201;53.426;10.300;2022-09-01T05:01:40;3.43;;;1.90;;
63110;SDS011;49201;53.426;10.300;2022-09-01T05:04:15;2.07;;;1.50;;
63110;SDS011;49201;53.426;10.300;2022-09-01T05:06:48;2.10;;;1.50;;
63110;SDS011;49201;53.426;10.300;2022-09-01T05:09:18;2.87;;;1.47;;
63110;SDS011;49201;53.426;10.300;2022-09-01T05:12:10;3.63;;;1.50;;
63110;SDS011;49201;53.426;10.300;2022-09-01T05:14:38;1.53;;;1.43;;
63110;SDS011;49201;53.426;10.300;2022-09-01T05:17:07;2.87;;;1.20;;
63110;SDS011;49201;53.426;10.300;2022-09-01T05:19:36;1.53;;;1.33;;
63110;SDS011;49201;53.426;10.300;2022-09-01T05:22:03;2.00;;;1.50;;
63110;SDS011;49201;53.426;10.300;2022-09-01T05:24:30;4.33;;;1.83;;
63110;SDS011;49201;53.426;10.300;2022-09-01T05:26:59;1.53;;;1.43;;
63110;SDS011;49201;53.426;10.300;2022-09-01T05:29:26;1.87;;;1.40;;
63110;SDS011;49201;53.426;10.300;2022-09-01T05:31:53;2.67;;;1.47;;
63110;SDS011;49201;53.426;10.300;2022-09-01T05:34:21;1.90;;;1.27;;
63110;SDS011;49201;53.426;10.300;2022-09-01T05:36:53;3.07;;;1.63;;
63110;SDS011;49201;53.426;10.300;2022-09-01T05:39:21;2.63;;;1.63;;
63110;SDS011;49201;53.426;10.300;2022-09-01T05:41:46;2.63;;;1.40;;
63110;SDS011;49201;53.426;10.300;2022-09-01T05:44:15;2.50;;;1.30;;
63110;SDS011;49201;53.426;10.300;2022-09-01T05:46:41;2.17;;;1.37;;
63110;SDS011;49201;53.426;10.300;2022-09-01T05:49:08;3.40;;;1.47;;
63110;SDS011;49201;53.426;10.300;2022-09-01T05:51:39;2.20;;;1.40;;
63110;SDS011;49201;53.426;10.300;2022-09-01T05:54:09;2.33;;;1.80;;
63110;SDS011;49201;53.426;10.300;2022-09-01T05:56:36;1.90;;;1.37;;
63110;SDS011;49201;53.426;10.300;2022-09-01T05:59:04;1.93;;;1.03;;
63110;SDS011;49201;53.426;10.300;2022-09-01T06:01:30;4.17;;;1.23;;
63110;SDS011;49201;53.426;10.300;2022-09-01T06:03:59;2.70;;;1.20;;
63110;SDS011;49201;53.426;10.300;2022-09-01T06:06:30;1.73;;;1.40;;
63110;SDS011;49201;53.426;10.300;2022-09-01T06:09:07;2.43;;;1.30;;
63110;SDS011;49201;53.426;10.300;2022-09-01T06:11:33;2.63;;;1.30;;
63110;SDS011;49201;53.426;10.300;2022-09-01T06:13:59;2.90;;;1.33;;
63110;SDS011;49201;53.426;10.300;2022-09-01T06:16:25;3.27;;;1.20;;
63110;SDS011;49201;53.426;10.300;2022-09-01T06:18:53;3.60;;;1.27;;
63110;SDS011;49201;53.426;10.300;2022-09-01T06:21:21;2.33;;;1.20;;
63110;SDS011;49201;53.426;10.300;2022-09-01T06:23:48;2.73;;;1.73;;
63110;SDS011;49201;53.426;10.300;2022-09-01T06:26:23;4.63;;;1.57;;
63110;SDS011;49201;53.426;10.300;2022-09-01T06:28:54;3.63;;;1.70;;
63110;SDS011;49201;53.426;10.300;2022-09-01T06:31:22;4.53;;;1.60;;
63110;SDS011;49201;53.426;10.300;2022-09-01T06:33:53;2.87;;;1.60;;
63110;SDS011;49201;53.426;10.300;2022-09-01T06:36:20;3.13;;;1.50;;
63110;SDS011;49201;53.426;10.300;2022-09-01T06:38:48;2.10;;;1.40;;
63110;SDS011;49201;53.426;10.300;2022-09-01T06:41:16;3.60;;;1.50;;
63110;SDS011;49201;53.426;10.300;2022-09-01T06:43:46;3.43;;;1.10;;
63110;SDS011;49201;53.426;10.300;2022-09-01T06:46:14;1.87;;;1.20;;
63110;SDS011;49201;53.426;10.300;2022-09-01T06:48:42;4.33;;;1.23;;
63110;SDS011;49201;53.426;10.300;2022-09-01T06:51:15;3.07;;;1.23;;
63110;SDS011;49201;53.426;10.300;2022-09-01T06:53:43;3.93;;;1.20;;
63110;SDS011;49201;53.426;10.300;2022-09-01T06:56:12;2.30;;;0.90;;
63110;SDS011;49201;53.426;10.300;2022-09-01T06:58:39;1.50;;;0.83;;
63110;SDS011;49201;53.426;10.300;2022-09-01T07:01:07;3.30;;;1.23;;
63110;SDS011;49201;53.426;10.300;2022-09-01T07:03:40;2.90;;;1.00;;
63110;SDS011;49201;53.426;10.300;2022-09-01T07:06:14;2.23;;;0.80;;
63110;SDS011;49201;53.426;10.300;2022-09-01T07:08:59;1.40;;;0.90;;
63110;SDS011;49201;53.426;10.300;2022-09-01T07:11:29;3.27;;;0.90;;
63110;SDS011;49201;53.426;10.300;2022-09-01T07:13:59;1.87;;;0.73;;
63110;SDS011;49201;53.426;10.300;2022-09-01T07:16:29;1.40;;;0.90;;
63110;SDS011;49201;53.426;10.300;2022-09-01T07:18:59;0.57;;;0.57;;
63110;SDS011;49201;53.426;10.300;2022-09-01T07:21:27;2.10;;;0.70;;
63110;SDS011;49201;53.426;10.300;2022-09-01T07:23:57;2.07;;;0.70;;
63110;SDS011;49201;53.426;10.300;2022-09-01T07:26:25;0.97;;;0.63;;
63110;SDS011;49201;53.426;10.300;2022-09-01T07:28:54;0.80;;;0.60;;
63110;SDS011;49201;53.426;10.300;2022-09-01T07:31:22;2.17;;;0.60;;
63110;SDS011;49201;53.426;10.300;2022-09-01T07:33:54;0.60;;;0.50;;
63110;SDS011;49201;53.426;10.300;2022-09-01T07:36:24;1.00;;;0.73;;
63110;SDS011;49201;53.426;10.300;2022-09-01T07:38:50;1.67;;;0.60;;
63110;SDS011;49201;53.426;10.300;2022-09-01T07:41:22;1.87;;;0.70;;
63110;SDS011;49201;53.426;10.300;2022-09-01T07:44:29;1.43;;;0.73;;
63110;SDS011;49201;53.426;10.300;2022-09-01T07:47:13;2.03;;;0.67;;
63110;SDS011;49201;53.426;10.300;2022-09-01T07:49:40;0.80;;;0.50;;
63110;SDS011;49201;53.426;10.300;2022-09-01T07:52:06;0.70;;;0.70;;
63110;SDS011;49201;53.426;10.300;2022-09-01T07:54:33;1.33;;;0.60;;
63110;SDS011;49201;53.426;10.300;2022-09-01T07:57:02;1.53;;;0.60;;
63110;SDS011;49201;53.426;10.300;2022-09-01T07:59:30;0.80;;;0.60;;
63110;SDS011;49201;53.426;10.300;2022-09-01T08:02:19;2.40;;;0.60;;
63110;SDS011;49201;53.426;10.300;2022-09-01T08:04:46;0.80;;;0.60;;
63110;SDS011;49201;53.426;10.300;2022-09-01T08:07:13;2.00;;;0.63;;
63110;SDS011;49201;53.426;10.300;2022-09-01T08:09:39;0.97;;;0.50;;
63110;SDS011;49201;53.426;10.300;2022-09-01T08:12:06;0.60;;;0.60;;
63110;SDS011;49201;53.426;10.300;2022-09-01T08:14:36;0.80;;;0.60;;
63110;SDS011;49201;53.426;10.300;2022-09-01T08:17:01;0.50;;;0.50;;
63110;SDS011;49201;53.426;10.300;2022-09-01T08:19:27;3.03;;;0.77;;
63110;SDS011;49201;53.426;10.300;2022-09-01T08:22:06;1.80;;;0.80;;
63110;SDS011;49201;53.426;10.300;2022-09-01T08:24:42;0.60;;;0.60;;
63110;SDS011;49201;53.426;10.300;2022-09-01T08:27:08;1.50;;;0.70;;
63110;SDS011;49201;53.426;10.300;2022-09-01T08:29:34;1.10;;;0.60;;
63110;SDS011;49201;53.426;10.300;2022-09-01T08:31:59;1.17;;;0.70;;
63110;SDS011;49201;53.426;10.300;2022-09-01T08:34:25;1.43;;;0.50;;
63110;SDS011;49201;53.426;10.300;2022-09-01T08:36:51;1.67;;;0.57;;
63110;SDS011;49201;53.426;10.300;2022-09-01T08:39:17;0.97;;;0.70;;
63110;SDS011;49201;53.426;10.300;2022-09-01T08:41:44;1.30;;;0.57;;
63110;SDS011;49201;53.426;10.300;2022-09-01T08:47:11;0.60;;;0.50;;
63110;SDS011;49201;53.426;10.300;2022-09-01T08:49:41;1.77;;;0.50;;
63110;SDS011;49201;53.426;10.300;2022-09-01T08:52:40;1.63;;;0.60;;
63110;SDS011;49201;53.426;10.300;2022-09-01T08:55:33;0.80;;;0.47;;
63110;SDS011;49201;53.426;10.300;2022-09-01T08:58:16;1.50;;;0.60;;
63110;SDS011;49201;53.426;10.300;2022-09-01T09:01:15;0.50;;;0.50;;
63110;SDS011;49201;53.426;10.300;2022-09-01T09:07:09;0.77;;;0.52;;
63110;SDS011;49201;53.426;10.300;2022-09-01T09:09:50;1.55;;;0.60;;
63110;SDS011;49201;53.426;10.300;2022-09-01T09:12:26;1.00;;;0.50;;
63110;SDS011;49201;53.426;10.300;2022-09-01T09:17:51;1.00;;;0.68;;
63110;SDS011;49201;53.426;10.300;2022-09-01T09:20:25;2.63;;;0.73;;
63110;SDS011;49201;53.426;10.300;2022-09-01T09:22:52;0.95;;;0.68;;
63110;SDS011;49201;53.426;10.300;2022-09-01T09:25:18;1.60;;;0.85;;
63110;SDS011;49201;53.426;10.300;2022-09-01T09:27:48;2.40;;;0.90;;
63110;SDS011;49201;53.426;10.300;2022-09-01T09:30:25;0.90;;;0.70;;
63110;SDS011;49201;53.426;10.300;2022-09-01T09:43:37;1.10;;;1.00;;
63110;SDS011;49201;53.426;10.300;2022-09-01T09:46:19;3.42;;;0.90;;
63110;SDS011;49201;53.426;10.300;2022-09-01T09:49:23;2.60;;;0.90;;
63110;SDS011;49201;53.426;10.300;2022-09-01T09:51:55;1.42;;;1.00;;
63110;SDS011;49201;53.426;10.300;2022-09-01T09:54:36;0.88;;;0.80;;
63110;SDS011;49201;53.426;10.300;2022-09-01T09:59:42;1.60;;;0.70;;
63110;SDS011;49201;53.426;10.300;2022-09-01T10:08:02;1.25;;;0.70;;
63110;SDS011;49201;53.426;10.300;2022-09-01T10:10:35;0.70;;;0.70;;
63110;SDS011;49201;53.426;10.300;2022-09-01T10:13:04;0.55;;;0.55;;
63110;SDS011;49201;53.426;10.300;2022-09-01T10:15:34;3.20;;;0.70;;
63110;SDS011;49201;53.426;10.300;2022-09-01T10:18:03;0.70;;;0.70;;
63110;SDS011;49201;53.426;10.300;2022-09-01T10:20:32;3.17;;;0.80;;
63110;SDS011;49201;53.426;10.300;2022-09-01T10:23:01;1.13;;;0.60;;
63110;SDS011;49201;53.426;10.300;2022-09-01T10:25:27;0.88;;;0.60;;
63110;SDS011;49201;53.426;10.300;2022-09-01T10:27:58;2.00;;;0.60;;
63110;SDS011;49201;53.426;10.300;2022-09-01T10:30:32;1.85;;;0.70;;
63110;SDS011;49201;53.426;10.300;2022-09-01T10:33:01;3.33;;;0.63;;
63110;SDS011;49201;53.426;10.300;2022-09-01T10:35:30;1.13;;;0.75;;
63110;SDS011;49201;53.426;10.300;2022-09-01T10:37:59;1.27;;;0.70;;
63110;SDS011;49201;53.426;10.300;2022-09-01T10:45:51;1.85;;;0.52;;
63110;SDS011;49201;53.426;10.300;2022-09-01T10:53:40;0.75;;;0.68;;
63110;SDS011;49201;53.426;10.300;2022-09-01T10:56:26;0.98;;;0.60;;
63110;SDS011;49201;53.426;10.300;2022-09-01T11:09:44;2.38;;;0.90;;
63110;SDS011;49201;53.426;10.300;2022-09-01T11:12:42;0.77;;;0.70;;
63110;SDS011;49201;53.426;10.300;2022-09-01T11:15:33;0.95;;;0.70;;
63110;SDS011;49201;53.426;10.300;2022-09-01T11:18:00;0.75;;;0.70;;
63110;SDS011;49201;53.426;10.300;2022-09-01T11:23:01;1.35;;;0.70;;
63110;SDS011;49201;53.426;10.300;2022-09-01T11:25:49;1.25;;;0.80;;
63110;SDS011;49201;53.426;10.300;2022-09-01T11:44:14;1.15;;;0.68;;
63110;SDS011;49201;53.426;10.300;2022-09-01T11:46:46;0.73;;;0.73;;
63110;SDS011;49201;53.426;10.300;2022-09-01T11:49:26;2.35;;;0.70;;
63110;SDS011;49201;53.426;10.300;2022-09-01T11:51:54;2.10;;;1.00;;
63110;SDS011;49201;53.426;10.300;2022-09-01T11:54:23;1.98;;;0.77;;
63110;SDS011;49201;53.426;10.300;2022-09-01T11:56:49;1.27;;;0.70;;
63110;SDS011;49201;53.426;10.300;2022-09-01T11:59:28;2.20;;;0.70;;
63110;SDS011;49201;53.426;10.300;2022-09-01T12:01:59;2.20;;;0.63;;
63110;SDS011;49201;53.426;10.300;2022-09-01T12:04:29;2.60;;;0.80;;
63110;SDS011;49201;53.426;10.300;2022-09-01T12:09:40;4.10;;;0.90;;
63110;SDS011;49201;53.426;10.300;2022-09-01T12:12:25;3.40;;;0.90;;
63110;SDS011;49201;53.426;10.300;2022-09-01T12:14:57;0.80;;;0.60;;
63110;SDS011;49201;53.426;10.300;2022-09-01T12:17:26;0.85;;;0.70;;
63110;SDS011;49201;53.426;10.300;2022-09-01T12:19:52;4.78;;;0.90;;
63110;SDS011;49201;53.426;10.300;2022-09-01T12:22:18;0.90;;;0.63;;
63110;SDS011;49201;53.426;10.300;2022-09-01T12:24:51;1.02;;;0.63;;
63110;SDS011;49201;53.426;10.300;2022-09-01T12:27:18;6.55;;;0.90;;
63110;SDS011;49201;53.426;10.300;2022-09-01T12:29:47;1.30;;;0.68;;
63110;SDS011;49201;53.426;10.300;2022-09-01T12:32:14;5.00;;;0.90;;
63110;SDS011;49201;53.426;10.300;2022-09-01T12:34:57;1.90;;;0.90;;
63110;SDS011;49201;53.426;10.300;2022-09-01T12:37:25;1.05;;;0.75;;
63110;SDS011;49201;53.426;10.300;2022-09-01T12:39:52;2.85;;;0.60;;
63110;SDS011;49201;53.426;10.300;2022-09-01T12:42:31;2.95;;;0.60;;
63110;SDS011;49201;53.426;10.300;2022-09-01T12:44:59;2.85;;;0.85;;
63110;SDS011;49201;53.426;10.300;2022-09-01T12:50:05;4.57;;;0.80;;
63110;SDS011;49201;53.426;10.300;2022-09-01T12:52:33;3.30;;;0.80;;
63110;SDS011;49201;53.426;10.300;2022-09-01T12:57:30;2.45;;;0.90;;
63110;SDS011;49201;53.426;10.300;2022-09-01T13:00:12;1.95;;;0.60;;
63110;SDS011;49201;53.426;10.300;2022-09-01T13:05:31;0.85;;;0.50;;
63110;SDS011;49201;53.426;10.300;2022-09-01T13:08:41;1.33;;;0.80;;
63110;SDS011;49201;53.426;10.300;2022-09-01T13:11:09;0.90;;;0.60;;
63110;SDS011;49201;53.426;10.300;2022-09-01T13:13:37;1.23;;;0.82;;
63110;SDS011;49201;53.426;10.300;2022-09-01T13:16:03;0.95;;;0.60;;
63110;SDS011;49201;53.426;10.300;2022-09-01T13:18:37;1.90;;;0.60;;
63110;SDS011;49201;53.426;10.300;2022-09-01T13:21:03;3.25;;;0.55;;
63110;SDS011;49201;53.426;10.300;2022-09-01T13:23:29;1.23;;;0.65;;
63110;SDS011;49201;53.426;10.300;2022-09-01T13:25:55;3.35;;;0.80;;
63110;SDS011;49201;53.426;10.300;2022-09-01T13:28:23;2.35;;;0.80;;
63110;SDS011;49201;53.426;10.300;2022-09-01T13:30:51;3.55;;;0.88;;
63110;SDS011;49201;53.426;10.300;2022-09-01T13:33:20;1.85;;;1.00;;
63110;SDS011;49201;53.426;10.300;2022-09-01T13:35:46;0.63;;;0.60;;
63110;SDS011;49201;53.426;10.300;2022-09-01T13:38:12;1.13;;;0.60;;
63110;SDS011;49201;53.426;10.300;2022-09-01T13:40:40;0.80;;;0.50;;
63110;SDS011;49201;53.426;10.300;2022-09-01T13:43:05;2.83;;;0.80;;
63110;SDS011;49201;53.426;10.300;2022-09-01T13:45:31;5.38;;;0.85;;
63110;SDS011;49201;53.426;10.300;2022-09-01T13:47:57;0.93;;;0.65;;
63110;SDS011;49201;53.426;10.300;2022-09-01T13:50:22;1.42;;;0.70;;
63110;SDS011;49201;53.426;10.300;2022-09-01T13:52:49;1.08;;;0.90;;
63110;SDS011;49201;53.426;10.300;2022-09-01T13:55:19;0.90;;;0.60;;
63110;SDS011;49201;53.426;10.300;2022-09-01T13:57:46;0.52;;;0.50;;
63110;SDS011;49201;53.426;10.300;2022-09-01T14:00:13;3.80;;;0.88;;
63110;SDS011;49201;53.426;10.300;2022-09-01T14:02:43;1.40;;;0.60;;
63110;SDS011;49201;53.426;10.300;2022-09-01T14:05:13;2.78;;;1.02;;
63110;SDS011;49201;53.426;10.300;2022-09-01T14:07:49;1.48;;;0.80;;
63110;SDS011;49201;53.426;10.300;2022-09-01T14:10:16;1.45;;;0.80;;
63110;SDS011;49201;53.426;10.300;2022-09-01T14:12:43;4.25;;;1.10;;
63110;SDS011;49201;53.426;10.300;2022-09-01T14:15:10;2.35;;;0.90;;
63110;SDS011;49201;53.426;10.300;2022-09-01T14:17:36;2.78;;;0.82;;
63110;SDS011;49201;53.426;10.300;2022-09-01T14:20:03;0.70;;;0.70;;
63110;SDS011;49201;53.426;10.300;2022-09-01T14:22:31;1.58;;;0.65;;
63110;SDS011;49201;53.426;10.300;2022-09-01T14:24:58;1.30;;;0.75;;
63110;SDS011;49201;53.426;10.300;2022-09-01T14:27:24;0.85;;;0.60;;
63110;SDS011;49201;53.426;10.300;2022-09-01T14:29:50;1.52;;;0.70;;
63110;SDS011;49201;53.426;10.300;2022-09-01T14:32:16;2.05;;;0.60;;
63110;SDS011;49201;53.426;10.300;2022-09-01T14:34:47;0.70;;;0.60;;
63110;SDS011;49201;53.426;10.300;2022-09-01T14:37:13;2.53;;;0.80;;
63110;SDS011;49201;53.426;10.300;2022-09-01T14:39:39;0.60;;;0.60;;
63110;SDS011;49201;53.426;10.300;2022-09-01T14:42:04;0.70;;;0.68;;
63110;SDS011;49201;53.426;10.300;2022-09-01T14:44:34;2.58;;;0.80;;
63110;SDS011;49201;53.426;10.300;2022-09-01T14:47:01;1.77;;;0.80;;
63110;SDS011;49201;53.426;10.300;2022-09-01T14:49:27;1.87;;;0.90;;
63110;SDS011;49201;53.426;10.300;2022-09-01T14:51:57;1.40;;;0.80;;
63110;SDS011;49201;53.426;10.300;2022-09-01T14:54:22;5.03;;;0.77;;
63110;SDS011;49201;53.426;10.300;2022-09-01T14:56:48;1.08;;;0.70;;
63110;SDS011;49201;53.426;10.300;2022-09-01T14:59:14;2.78;;;0.85;;
63110;SDS011;49201;53.426;10.300;2022-09-01T15:01:40;1.08;;;0.65;;
63110;SDS011;49201;53.426;10.300;2022-09-01T15:04:06;2.30;;;0.80;;
63110;SDS011;49201;53.426;10.300;2022-09-01T15:06:32;1.67;;;0.60;;
63110;SDS011;49201;53.426;10.300;2022-09-01T15:08:57;0.70;;;0.60;;
63110;SDS011;49201;53.426;10.300;2022-09-01T15:11:23;1.50;;;0.80;;
63110;SDS011;49201;53.426;10.300;2022-09-01T15:13:49;0.98;;;0.70;;
63110;SDS011;49201;53.426;10.300;2022-09-01T15:16:17;2.40;;;0.70;;
63110;SDS011;49201;53.426;10.300;2022-09-01T15:18:45;3.30;;;0.77;;
63110;SDS011;49201;53.426;10.300;2022-09-01T15:21:18;2.15;;;0.80;;
63110;SDS011;49201;53.426;10.300;2022-09-01T15:23:45;1.17;;;0.70;;
63110;SDS011;49201;53.426;10.300;2022-09-01T15:26:12;1.93;;;0.90;;
63110;SDS011;49201;53.426;10.300;2022-09-01T15:28:38;2.00;;;0.80;;
63110;SDS011;49201;53.426;10.300;2022-09-01T15:31:04;1.40;;;0.80;;
63110;SDS011;49201;53.426;10.300;2022-09-01T15:33:29;1.65;;;0.70;;
63110;SDS011;49201;53.426;10.300;2022-09-01T15:35:55;2.27;;;0.60;;
63110;SDS011;49201;53.426;10.300;2022-09-01T15:38:20;2.83;;;0.87;;
63110;SDS011;49201;53.426;10.300;2022-09-01T15:40:46;2.47;;;0.70;;
63110;SDS011;49201;53.426;10.300;2022-09-01T15:43:13;1.53;;;0.70;;
63110;SDS011;49201;53.426;10.300;2022-09-01T15:45:38;1.23;;;0.70;;
63110;SDS011;49201;53.426;10.300;2022-09-01T15:48:05;1.30;;;0.70;;
63110;SDS011;49201;53.426;10.300;2022-09-01T15:50:30;0.73;;;0.60;;
63110;SDS011;49201;53.426;10.300;2022-09-01T15:53:00;0.60;;;0.60;;
63110;SDS011;49201;53.426;10.300;2022-09-01T15:58:05;2.17;;;0.60;;
63110;SDS011;49201;53.426;10.300;2022-09-01T16:00:31;3.37;;;0.80;;
63110;SDS011;49201;53.426;10.300;2022-09-01T16:02:56;3.23;;;0.90;;
63110;SDS011;49201;53.426;10.300;2022-09-01T16:05:25;2.43;;;0.97;;
63110;SDS011;49201;53.426;10.300;2022-09-01T16:07:52;0.50;;;0.50;;
63110;SDS011;49201;53.426;10.300;2022-09-01T16:10:18;1.77;;;0.83;;
63110;SDS011;49201;53.426;10.300;2022-09-01T16:12:44;2.57;;;0.93;;